• Join FlightAware (Why Join?)
  • Login
  • US Flag 
08:21PM EDT


 

Airport Tracker/Info


-or-


 

Live Flight TrackerFlight Track Log ✈ CTL309 ✈ 20-Jul-2013 ✈ KOSU - KHAO

Flight Track Log - Related Links

Times and Time Zones

All times are in EDT time to prevent confusion due to time zone crossing. See the CTL309 flight status page for this flight to view local times or setup timezone preferences in your user account.

Time Position Orientation Groundspeed Altitude Reporting Facility
EDT Latitude Longitude Course Direction KTS MPH feet Rate Location/Type
04:04AM 40.0711 -83.1125 237° Southwest 129 148 1,400  Level Indianapolis Center
04:05AM 40.0475 -83.1606 237° Southwest 138 159 1,900 360 Climbing Indianapolis Center
04:06AM 40.0383 -83.1833 242° Southwest 135 155 2,100 240 Climbing Indianapolis Center
04:07AM 40.0211 -83.2242 241° Southwest 132 152 2,400 240 Climbing Indianapolis Center
04:08AM 40.0014 -83.2672 239° Southwest 134 154 2,700 480 Climbing Indianapolis Center
04:09AM 39.9822 -83.3072 238° Southwest 132 152 3,400 660 Climbing Indianapolis Center
04:10AM 39.9628 -83.3422 234° Southwest 126 145 4,100 300 Climbing Indianapolis Center
04:11AM 39.9425 -83.3825 237° Southwest 127 146 4,100  Level Indianapolis Center
04:12AM 39.9203 -83.4278 237° Southwest 138 159 4,100 -60 Level Indianapolis Center
04:13AM 39.8950 -83.4725 234° Southwest 146 168 4,000  Descending Indianapolis Center
04:14AM 39.8747 -83.5183 240° Southwest 148 170 4,100  Climbing Indianapolis Center
04:15AM 39.8547 -83.5639 240° Southwest 147 169 4,100  Level Indianapolis Center
04:16AM 39.8369 -83.6128 245° Southwest 147 169 4,100  Level Indianapolis Center
04:17AM 39.8164 -83.6581 239° Southwest 146 168 4,100  Level Indianapolis Center
04:18AM 39.7947 -83.7022 237° Southwest 145 167 4,100  Level Indianapolis Center
04:19AM 39.7758 -83.7492 242° Southwest 145 167 4,100  Level Indianapolis Center
04:20AM 39.7519 -83.7933 235° Southwest 147 169 4,100  Level Indianapolis Center
04:21AM 39.7269 -83.8369 233° Southwest 148 170 4,100  Level Indianapolis Center
04:22AM 39.7025 -83.8800 234° Southwest 148 170 4,100  Level Indianapolis Center
04:23AM 39.6811 -83.9258 239° Southwest 147 169 4,100  Level Indianapolis Center
04:24AM 39.6639 -83.9747 245° Southwest 147 169 4,100  Level Indianapolis Center
04:25AM 39.6428 -84.0217 240° Southwest 148 170 4,100  Level Indianapolis Center
04:26AM 39.6203 -84.0675 238° Southwest 149 171 4,100  Level Indianapolis Center
04:27AM 39.5944 -84.1108 232° Southwest 150 173 4,100  Level Indianapolis Center
04:28AM 39.5706 -84.1564 236° Southwest 151 174 4,100 -60 Level Indianapolis Center
04:29AM 39.5456 -84.2006 234° Southwest 151 174 4,000 -300 Descending Indianapolis Center
04:30AM 39.5197 -84.2461 234° Southwest 153 176 3,500 -480 Descending Indianapolis Center
04:31AM 39.4903 -84.2936 231° Southwest 161 185 3,100 -420 Descending Indianapolis Center
04:33AM 39.4338 -84.3549 232° Southwest  Level FlightAware Approximate
04:40AM 39.3500 -84.5167 229° Southwest  Level FlightAware Approximate
04:41AM 39.3638 -84.5219 229° Southwest  Level Estimated
04:42AM 39.3638 -84.5219 229° Southwest  Level Estimated
04:43AM 39.3638 -84.5219 229° Southwest  Level Estimated
04:44AM 39.3638 -84.5219 229° Southwest  Level Estimated
04:45AM 39.3638 -84.5219 229° Southwest  Level Estimated
04:46AM 39.3638 -84.5219 229° Southwest  Level Estimated
04:47AM 39.3638 -84.5219 229° Southwest  Level Estimated